Time;durP1;ratioP1;P1;durP2;ratioP2;P2;SDS_P1;SDS_P2;PMS_P1;PMS_P2;Temp;Humidity;BMP_temperature;BMP_pressure;BME280_temperature;BME280_humidity;BME280_pressure;Samples;Min_cycle;Max_cycle;Signal;HPM_P1;HPM_P2
2022/08/11 00:02:28;;;;;;;0.40;0.20;;;;;;;23.79;62.14;95314.78;5072353;28;20413;-60
2022/08/11 00:05:01;;;;;;;0.50;0.40;;;;;;;23.76;61.86;95321.69;5072279;28;20948;-60
2022/08/11 00:07:31;;;;;;;0.40;0.30;;;;;;;23.73;62.58;95322.38;5072107;28;20425;-60
2022/08/11 00:10:01;;;;;;;0.40;0.30;;;;;;;23.58;63.79;95317.78;5072537;28;20494;-60
2022/08/11 00:12:30;;;;;;;0.57;0.40;;;;;;;23.66;62.63;95316.81;5072347;28;20480;-59
2022/08/11 00:15:01;;;;;;;0.53;0.30;;;;;;;23.69;64.07;95304.50;5071311;28;20516;-59
2022/08/11 00:17:32;;;;;;;0.40;0.20;;;;;;;23.54;64.67;95314.22;5072085;28;20497;-59
2022/08/11 00:20:07;;;;;;;0.60;0.60;;;;;;;23.72;63.46;95312.72;5072464;28;20453;-59
2022/08/11 00:22:44;;;;;;;0.40;0.30;;;;;;;23.79;63.79;95312.88;5071890;28;20471;-59
2022/08/11 00:25:16;;;;;;;0.63;0.40;;;;;;;23.82;62.87;95304.03;5072028;28;20429;-59
2022/08/11 00:27:46;;;;;;;0.40;0.30;;;;;;;23.64;63.43;95310.97;5071910;28;20421;-59
2022/08/11 00:30:16;;;;;;;0.40;0.30;;;;;;;23.78;63.35;95314.00;5072247;28;20421;-59
2022/08/11 00:32:54;;;;;;;3.40;0.40;;;;;;;23.77;62.45;95308.94;5072044;28;20425;-59
2022/08/11 00:35:28;;;;;;;0.40;0.30;;;;;;;23.51;62.41;95276.25;5071042;28;20937;-59
2022/08/11 00:38:24;;;;;;;0.60;0.30;;;;;;;23.24;64.27;95299.56;5071422;28;20488;-60
2022/08/11 00:41:16;;;;;;;0.40;0.30;;;;;;;23.10;62.99;95312.72;5072037;28;20861;-60
2022/08/11 00:44:10;;;;;;;0.40;0.30;;;;;;;22.74;63.00;95284.78;5071723;28;20491;-60
2022/08/11 00:46:51;;;;;;;0.40;0.40;;;;;;;22.90;63.05;95295.63;5072140;28;20457;-60
2022/08/11 00:49:33;;;;;;;0.50;0.30;;;;;;;22.84;64.02;95324.03;5071630;28;20770;-60
2022/08/11 00:52:13;;;;;;;0.40;0.20;;;;;;;22.87;61.81;95268.50;5071958;28;20824;-59
2022/08/11 00:55:14;;;;;;;0.70;0.50;;;;;;;22.70;63.66;95308.22;5072041;28;20432;-59
2022/08/11 00:58:30;;;;;;;0.40;0.30;;;;;;;22.53;62.99;95232.09;5071650;28;20825;-60
2022/08/11 01:01:21;;;;;;;0.40;0.40;;;;;;;22.36;64.21;95243.22;5070333;28;20437;-59
2022/08/11 01:04:23;;;;;;;0.40;0.20;;;;;;;22.50;64.72;95228.16;5075673;28;20413;-59
2022/08/11 01:07:28;;;;;;;0.40;0.20;;;;;;;23.00;62.50;95241.03;5075742;28;20893;-60
2022/08/11 01:10:49;;;;;;;0.50;0.40;;;;;;;23.56;62.37;95311.16;5065396;28;20441;-59
2022/08/11 01:13:58;;;;;;;0.40;0.30;;;;;;;23.26;62.16;95272.94;5034397;28;20433;-59
2022/08/11 01:16:59;;;;;;;0.47;0.47;;;;;;;23.25;62.10;95309.25;5035561;28;20440;-59
2022/08/11 01:19:57;;;;;;;0.40;0.30;;;;;;;23.09;63.00;95305.75;5074433;28;20564;-60
2022/08/11 01:23:41;;;;;;;0.40;0.30;;;;;;;22.48;67.91;95308.75;5074652;28;20512;-60
2022/08/11 01:26:48;;;;;;;0.40;0.30;;;;;;;22.44;69.60;95299.75;5075414;28;20449;-60
2022/08/11 01:29:49;;;;;;;0.70;0.40;;;;;;;22.23;70.56;95279.50;5075603;28;20501;-60
2022/08/11 01:32:54;;;;;;;4.13;0.83;;;;;;;22.52;69.18;95292.63;5065324;28;20523;-59
2022/08/11 01:35:35;;;;;;;0.50;0.43;;;;;;;22.86;65.72;95299.38;5049899;28;20428;-59
2022/08/11 01:38:38;;;;;;;0.50;0.33;;;;;;;22.42;71.75;95263.44;5075458;28;20492;-59
2022/08/11 01:44:36;;;;;;;0.90;0.60;;;;;;;22.44;78.29;95296.31;5074430;28;20452;-59
2022/08/11 01:44:45;;;;;;;0.50;0.30;;;;;;;20.90;88.02;95116.81;5075155;28;20443;-59
2022/08/11 01:50:37;;;;;;;0.50;0.40;;;;;;;22.39;87.16;95264.91;5074957;28;20478;-59
2022/08/11 01:53:18;;;;;;;0.40;0.30;;;;;;;22.94;83.89;95298.41;5074922;28;20493;-59
2022/08/11 01:55:56;;;;;;;0.40;0.20;;;;;;;23.06;79.21;95282.13;5074244;28;20507;-59
2022/08/11 01:58:33;;;;;;;0.40;0.30;;;;;;;23.32;74.72;95291.28;5074371;28;21069;-59
2022/08/11 02:01:25;;;;;;;0.50;0.30;;;;;;;23.11;80.07;95284.56;5074539;28;21000;-59
2022/08/11 02:03:58;;;;;;;0.60;0.40;;;;;;;22.17;95.27;95294.34;5074708;28;20512;-59
2022/08/11 02:06:54;;;;;;;0.60;0.40;;;;;;;21.82;98.78;95294.88;5074237;28;20449;-59
2022/08/11 02:09:40;;;;;;;0.67;0.67;;;;;;;22.10;94.38;95273.34;5074392;28;21012;-59
2022/08/11 02:12:28;;;;;;;0.40;0.30;;;;;;;22.73;87.20;95291.34;5073134;28;20508;-59
2022/08/11 02:15:07;;;;;;;0.50;0.30;;;;;;;22.68;86.58;95280.00;5074502;28;20780;-59
2022/08/11 02:17:48;;;;;;;0.50;0.40;;;;;;;22.81;84.98;95283.41;5074478;28;20575;-59
2022/08/11 02:23:40;;;;;;;0.47;0.30;;;;;;;22.95;85.55;95284.53;5073982;28;20453;-59
2022/08/11 02:26:36;;;;;;;0.50;0.50;;;;;;;22.74;91.17;95286.72;5073828;28;20953;-59
2022/08/11 02:29:15;;;;;;;0.40;0.27;;;;;;;22.32;96.42;95283.63;5074252;28;20413;-59
2022/08/11 02:35:03;;;;;;;0.40;0.27;;;;;;;21.77;94.87;95237.66;5073543;28;20429;-59
2022/08/11 02:37:43;;;;;;;0.47;0.30;;;;;;;21.69;93.50;95198.13;5073734;28;20996;-59
2022/08/11 02:40:23;;;;;;;0.43;0.30;;;;;;;22.31;91.00;95292.88;5074043;28;20833;-60
2022/08/11 02:43:22;;;;;;;0.40;0.23;;;;;;;22.45;87.92;95285.13;5073753;28;20497;-59
2022/08/11 02:46:01;;;;;;;0.40;0.20;;;;;;;22.72;86.08;95292.44;5073149;28;20544;-60
2022/08/11 02:51:40;;;;;;;0.40;0.20;;;;;;;22.87;84.38;95290.91;5034779;28;20955;-59
2022/08/11 02:54:17;;;;;;;0.40;0.20;;;;;;;22.94;84.34;95284.91;5073471;28;20469;-59
2022/08/11 02:56:54;;;;;;;0.50;0.30;;;;;;;23.04;83.66;95292.50;5073265;28;20467;-59
2022/08/11 02:59:52;;;;;;;2.20;0.40;;;;;;;21.76;84.31;95091.19;5073023;28;20840;-59
2022/08/11 03:02:47;;;;;;;0.40;0.20;;;;;;;23.14;82.73;95295.47;5073251;28;20495;-59
2022/08/11 03:05:50;;;;;;;0.40;0.20;;;;;;;23.20;82.96;95299.47;5073524;28;20459;-59
2022/08/11 03:08:35;;;;;;;0.40;0.30;;;;;;;23.24;81.65;95302.25;5050763;28;20414;-59
2022/08/11 03:17:13;;;;;;;0.40;0.23;;;;;;;23.27;77.38;95299.66;5072957;28;20909;-59
2022/08/11 03:19:53;;;;;;;0.40;0.30;;;;;;;23.13;78.79;95271.47;5073239;28;20508;-59
2022/08/11 03:22:26;;;;;;;0.60;0.30;;;;;;;23.19;78.22;95295.22;5072622;28;20460;-59
2022/08/11 03:25:01;;;;;;;0.40;0.30;;;;;;;23.08;80.52;95301.47;5072186;28;20513;-59
2022/08/11 03:27:39;;;;;;;0.40;0.20;;;;;;;23.21;78.56;95298.34;5073165;28;20508;-59
2022/08/11 03:30:13;;;;;;;0.40;0.20;;;;;;;23.02;78.54;95259.63;5072963;28;20425;-61
2022/08/11 03:36:10;;;;;;;0.40;0.27;;;;;;;22.86;78.61;95246.09;5072897;28;20524;-58
2022/08/11 03:38:56;;;;;;;0.40;0.30;;;;;;;23.16;78.34;95281.59;5072537;28;20506;-59
2022/08/11 03:41:43;;;;;;;0.40;0.20;;;;;;;23.29;77.00;95296.59;5072262;28;20433;-59
2022/08/11 03:44:52;;;;;;;0.40;0.20;;;;;;;23.25;77.99;95299.19;5073033;28;20432;-59
2022/08/11 03:47:44;;;;;;;0.40;0.20;;;;;;;22.97;77.84;95247.13;5072440;28;20512;-59
2022/08/11 03:50:42;;;;;;;0.40;0.20;;;;;;;22.53;78.46;95183.47;5072694;28;20956;-59
2022/08/11 03:53:18;;;;;;;0.60;0.30;;;;;;;23.23;77.40;95289.88;5072203;28;20473;-59
2022/08/11 03:56:13;;;;;;;0.50;0.40;;;;;;;23.16;78.23;95287.00;5071984;28;20500;-59
2022/08/11 03:59:19;;;;;;;0.40;0.20;;;;;;;22.97;77.03;95255.25;5072096;28;20504;-59
2022/08/11 04:02:14;;;;;;;0.47;0.30;;;;;;;22.93;77.96;95256.28;5072235;28;20995;-59
2022/08/11 04:05:19;;;;;;;0.40;0.20;;;;;;;23.33;76.66;95298.25;5071021;28;20469;-59
2022/08/11 04:08:21;;;;;;;0.40;0.30;;;;;;;23.33;77.69;95300.16;5071600;28;20504;-59
2022/08/11 04:11:25;;;;;;;0.40;0.20;;;;;;;23.24;79.23;95294.16;5072412;28;20503;-60
2022/08/11 04:17:38;;;;;;;0.70;0.30;;;;;;;22.58;82.47;95212.94;5071373;28;20524;-60
2022/08/11 04:20:40;;;;;;;0.97;0.67;;;;;;;22.50;87.51;95293.00;5071388;28;20544;-59
2022/08/11 04:23:25;;;;;;;0.50;0.40;;;;;;;22.47;87.25;95282.88;5071787;28;20437;-60
2022/08/11 04:26:33;;;;;;;0.40;0.30;;;;;;;22.92;86.68;95293.34;5071626;28;20928;-60
2022/08/11 04:29:17;;;;;;;0.40;0.30;;;;;;;21.95;86.47;95163.44;5071242;28;20512;-60
2022/08/11 04:32:04;;;;;;;0.40;0.30;;;;;;;22.39;85.03;95248.69;5071530;28;20424;-60
2022/08/11 04:34:51;;;;;;;0.70;0.37;;;;;;;23.02;81.75;95311.00;5071566;28;20428;-59
2022/08/11 04:37:49;;;;;;;0.60;0.60;;;;;;;23.01;84.85;95309.41;5071223;28;20423;-60
2022/08/11 04:40:50;;;;;;;0.40;0.20;;;;;;;23.31;78.45;95321.34;5071439;28;20461;-59
2022/08/11 04:43:45;;;;;;;0.40;0.20;;;;;;;23.47;78.02;95319.47;5071433;28;20508;-59
2022/08/11 04:47:04;;;;;;;0.50;0.30;;;;;;;23.43;77.64;95310.47;5070572;28;20428;-59
2022/08/11 05:02:59;;;;;;;0.50;0.40;;;;;;;22.72;79.60;95273.53;5070883;28;20523;-58
2022/08/11 05:05:49;;;;;;;1.43;0.30;;;;;;;22.86;77.58;95262.31;5071244;28;20458;-58
2022/08/11 05:08:59;;;;;;;0.53;0.37;;;;;;;23.25;79.15;95301.91;5070779;28;20486;-58
2022/08/11 05:12:02;;;;;;;0.50;0.40;;;;;;;23.36;81.42;95307.59;5071234;28;20421;-57
2022/08/11 05:34:53;;;;;;;0.40;0.30;;;;;;;23.57;85.61;95318.94;5071347;28;20445;-62
2022/08/11 05:37:32;;;;;;;0.70;0.57;;;;;;;23.41;88.93;95317.38;5071397;28;20424;-62
2022/08/11 05:57:21;;;;;;;0.60;0.40;;;;;;;24.05;92.70;95317.69;5074828;28;20425;-63
2022/08/11 06:00:14;;;;;;;1.50;0.53;;;;;;;24.08;90.72;95316.22;5074309;28;20503;-64
2022/08/11 06:02:44;;;;;;;0.40;0.30;;;;;;;24.84;81.91;95297.28;5074746;28;20424;-67
2022/08/11 06:05:14;;;;;;;0.50;0.40;;;;;;;25.01;79.98;95304.94;5074669;28;20421;-70
2022/08/11 06:07:43;;;;;;;10.27;1.17;;;;;;;24.41;84.82;95308.41;5074506;28;20444;-69
2022/08/11 06:10:27;;;;;;;0.50;0.47;;;;;;;24.69;82.85;95308.19;5074204;28;20499;-70
2022/08/11 06:12:59;;;;;;;0.50;0.40;;;;;;;24.49;79.40;95258.63;5073909;28;20463;-70
2022/08/11 06:15:31;;;;;;;0.63;0.60;;;;;;;24.81;73.66;95260.03;5074548;28;20542;-70
2022/08/11 06:18:01;;;;;;;1.20;0.57;;;;;;;25.25;73.70;95304.56;5074418;28;20481;-70
2022/08/11 06:20:36;;;;;;;0.50;0.47;;;;;;;25.40;72.75;95302.09;5073434;28;20487;-69
2022/08/11 06:23:08;;;;;;;0.40;0.30;;;;;;;25.90;71.37;95307.16;5074385;28;20451;-70
2022/08/11 06:25:38;;;;;;;0.73;0.67;;;;;;;25.69;75.53;95299.47;5074228;28;20422;-70
2022/08/11 06:28:08;;;;;;;0.70;0.67;;;;;;;25.70;70.15;95303.75;5073474;28;20437;-59
2022/08/11 06:30:41;;;;;;;7.03;0.50;;;;;;;25.98;72.05;95289.03;5074165;28;20500;-60
2022/08/11 06:33:13;;;;;;;0.50;0.40;;;;;;;25.81;71.72;95238.72;5073808;28;20421;-61
2022/08/11 06:35:57;;;;;;;3.60;3.33;;;;;;;25.65;69.85;95295.91;5073695;28;20475;-58
2022/08/11 06:38:44;;;;;;;0.67;0.57;;;;;;;25.90;67.97;95290.06;5073634;28;20432;-58
2022/08/11 06:41:31;;;;;;;1.33;0.80;;;;;;;26.49;68.16;95296.28;5073573;28;20948;-58
2022/08/11 06:44:16;;;;;;;0.50;0.40;;;;;;;27.54;58.66;95289.59;5073838;28;20955;-58
2022/08/11 06:46:49;;;;;;;0.50;0.47;;;;;;;28.02;56.99;95295.75;5072925;28;20906;-58
2022/08/11 06:52:08;;;;;;;1.40;0.53;;;;;;;27.84;54.77;95286.66;5073597;28;20452;-60
2022/08/11 06:55:05;;;;;;;0.53;0.50;;;;;;;28.22;57.72;95289.66;5072607;28;20437;-60
2022/08/11 07:00:30;;;;;;;2.20;0.87;;;;;;;28.02;54.43;95282.13;5072460;28;20501;-60
2022/08/11 07:03:08;;;;;;;1.17;1.10;;;;;;;27.58;56.36;95285.72;5073587;28;20428;-60
2022/08/11 07:05:44;;;;;;;0.50;0.40;;;;;;;27.48;59.28;95248.31;5073087;28;20492;-59
2022/08/11 07:17:48;;;;;;;0.70;0.70;;;;;;;28.73;51.62;95264.16;5072682;28;20988;-59
2022/08/11 07:28:57;;;;;;;0.70;0.70;;;;;;;30.10;42.85;95272.38;5073167;28;20867;-58
2022/08/11 07:31:36;;;;;;;0.60;0.60;;;;;;;29.24;44.20;95274.78;5072714;28;20459;-59
2022/08/11 07:34:17;;;;;;;0.70;0.47;;;;;;;29.43;42.04;95268.91;5072751;28;20428;-59
2022/08/11 07:36:53;;;;;;;0.50;0.40;;;;;;;30.52;40.72;95262.47;5072725;28;20449;-59
2022/08/11 07:39:24;;;;;;;0.40;0.40;;;;;;;30.72;39.87;95260.78;5072549;28;20423;-60
2022/08/11 07:41:57;;;;;;;1.20;1.10;;;;;;;29.26;41.20;95196.00;5072447;28;20513;-58
2022/08/11 07:44:28;;;;;;;0.53;0.53;;;;;;;29.89;40.50;95223.22;5072497;28;20455;-58
2022/08/11 07:52:39;;;;;;;0.60;0.60;;;;;;;31.18;40.33;95241.38;5072051;28;20436;-57
2022/08/11 07:55:14;;;;;;;0.83;0.43;;;;;;;31.85;39.00;95238.06;5072189;28;20429;-58
2022/08/11 08:17:52;;;;;;;0.60;0.60;;;;;;;32.41;36.48;95226.44;5071923;28;20972;-59
2022/08/11 08:20:46;;;;;;;1.60;1.50;;;;;;;32.08;36.27;95227.25;5071664;28;20484;-59
2022/08/11 08:23:16;;;;;;;0.83;0.70;;;;;;;32.63;35.42;95224.25;5072232;28;20426;-58
2022/08/11 08:25:47;;;;;;;0.87;0.60;;;;;;;33.14;36.67;95218.41;5071582;28;20517;-58
2022/08/11 08:28:17;;;;;;;0.57;0.57;;;;;;;32.73;37.32;95206.84;5071880;28;20478;-57
2022/08/11 08:30:49;;;;;;;10.00;0.50;;;;;;;33.24;35.75;95209.22;5071860;28;20422;-57
2022/08/11 08:33:21;;;;;;;0.40;0.40;;;;;;;32.49;35.87;95224.38;5071135;28;20528;-58
2022/08/11 08:36:10;;;;;;;0.60;0.40;;;;;;;32.84;34.28;95190.22;5071729;28;20858;-58
2022/08/11 08:38:41;;;;;;;0.50;0.40;;;;;;;32.55;33.70;95206.31;5071975;28;20464;-58
2022/08/11 08:41:12;;;;;;;0.57;0.57;;;;;;;34.01;33.07;95205.53;5071835;28;20495;-57
2022/08/11 08:43:49;;;;;;;0.50;0.50;;;;;;;33.39;32.35;95215.28;5071686;28;20428;-57
2022/08/11 08:46:22;;;;;;;0.40;0.30;;;;;;;34.52;31.53;95201.34;5071709;28;20456;-58
2022/08/11 08:48:51;;;;;;;0.60;0.60;;;;;;;34.24;29.87;95200.75;5071526;28;20956;-57
2022/08/11 08:51:35;;;;;;;0.70;0.70;;;;;;;33.17;30.57;95143.41;5071561;28;20933;-57
2022/08/11 08:54:34;;;;;;;0.50;0.50;;;;;;;33.56;31.34;95194.19;5071527;28;20448;-56
2022/08/11 08:57:05;;;;;;;0.60;0.60;;;;;;;34.55;31.93;95186.78;5071900;28;20202;-56
2022/08/11 08:59:39;;;;;;;0.80;0.40;;;;;;;33.77;32.35;95191.06;5071936;28;20421;-56
2022/08/11 09:02:18;;;;;;;0.77;0.77;;;;;;;33.19;31.19;95195.94;5071577;28;20421;-56
2022/08/11 09:05:02;;;;;;;0.53;0.53;;;;;;;34.52;31.41;95177.38;5071087;28;20305;-56
2022/08/11 09:07:32;;;;;;;0.30;0.20;;;;;;;35.08;29.71;95176.13;5071485;28;20201;-56
2022/08/11 09:10:10;;;;;;;0.60;0.50;;;;;;;35.71;28.72;95184.00;5071195;28;20191;-56
2022/08/11 09:12:42;;;;;;;0.53;0.50;;;;;;;33.85;30.11;95185.00;5071667;28;20189;-57
2022/08/11 09:15:12;;;;;;;0.40;0.30;;;;;;;35.03;29.38;95178.59;5071621;28;20247;-56
2022/08/11 09:17:49;;;;;;;0.60;0.50;;;;;;;35.58;27.99;95177.66;5071310;28;20316;-57
2022/08/11 09:20:21;;;;;;;0.40;0.30;;;;;;;35.99;29.76;95180.47;5071042;28;20257;-56
2022/08/11 09:28:48;;;;;;;0.50;0.43;;;;;;;34.85;30.17;95170.75;5075540;28;20285;-57
2022/08/11 09:31:18;;;;;;;0.73;0.50;;;;;;;35.17;31.19;95158.97;5075055;28;20182;-58
2022/08/11 09:33:54;;;;;;;0.37;0.27;;;;;;;35.33;31.43;95166.47;5075084;28;20662;-57
2022/08/11 09:42:00;;;;;;;0.50;0.43;;;;;;;32.42;32.68;95169.63;5074979;28;20213;-57
2022/08/11 09:44:48;;;;;;;0.50;0.30;;;;;;;32.96;32.64;95159.44;5075074;28;20428;-57
2022/08/11 09:47:23;;;;;;;5.90;0.50;;;;;;;33.54;35.58;95156.13;5075186;28;20440;-56
2022/08/11 09:49:56;;;;;;;0.50;0.50;;;;;;;33.31;33.29;95136.91;5074981;28;20425;-56
2022/08/11 09:52:26;;;;;;;0.70;0.53;;;;;;;34.14;32.34;95088.97;5074709;28;20909;-55
2022/08/11 09:54:55;;;;;;;0.50;0.40;;;;;;;34.71;30.38;95138.00;5074683;28;20840;-55
2022/08/11 10:00:14;;;;;;;0.60;0.50;;;;;;;35.18;28.08;95069.59;5074119;28;20495;-56
2022/08/11 10:02:45;;;;;;;0.63;0.63;;;;;;;34.95;29.38;95136.66;5074668;28;20190;-56
2022/08/11 10:08:05;;;;;;;0.40;0.40;;;;;;;34.47;29.56;95131.06;5074395;28;20512;-56
2022/08/11 10:10:37;;;;;;;0.30;0.30;;;;;;;35.33;28.76;95134.16;5074531;28;20467;-56
2022/08/11 10:13:09;;;;;;;0.47;0.40;;;;;;;35.15;30.17;95130.31;5074781;28;20214;-55
2022/08/11 10:16:02;;;;;;;0.40;0.40;;;;;;;33.90;30.91;95130.72;5074198;28;20201;-56
2022/08/11 10:18:51;;;;;;;0.50;0.50;;;;;;;32.94;31.42;95137.88;5073921;28;20479;-56
2022/08/11 10:21:28;;;;;;;0.40;0.40;;;;;;;33.34;31.60;95133.31;5074356;28;20533;-56
2022/08/11 10:26:57;;;;;;;0.40;0.40;;;;;;;32.96;33.60;95127.28;5074490;28;20424;-56
2022/08/11 10:35:26;;;;;;;0.60;0.60;;;;;;;34.26;30.16;95121.31;5072587;28;20523;-54
2022/08/11 10:37:56;;;;;;;0.40;0.30;;;;;;;34.98;29.99;95124.78;5074311;28;20799;-55
2022/08/11 10:40:38;;;;;;;0.60;0.60;;;;;;;35.36;31.74;95122.28;5074193;28;20435;-56
2022/08/11 10:43:12;;;;;;;0.40;0.37;;;;;;;35.51;28.21;95112.44;5074151;28;20423;-55
2022/08/11 10:49:00;;;;;;;0.57;0.40;;;;;;;35.39;30.85;95121.41;5073877;28;20425;-55
2022/08/11 10:59:56;;;;;;;0.40;0.40;;;;;;;37.39;26.48;95088.97;5073442;28;20216;-56
2022/08/11 11:02:25;;;;;;;0.50;0.50;;;;;;;36.68;25.99;95048.34;5073141;28;20249;-56
2022/08/11 11:05:13;;;;;;;0.70;0.70;;;;;;;36.56;26.95;95087.78;5073410;28;20187;-56
2022/08/11 11:07:52;;;;;;;0.30;0.20;;;;;;;36.01;25.72;95059.44;5073465;28;20193;-55
2022/08/11 11:10:21;;;;;;;0.70;0.40;;;;;;;35.20;27.24;95091.19;5073289;28;20278;-56
2022/08/11 11:18:34;;;;;;;0.40;0.30;;;;;;;34.29;29.47;95037.13;5072812;28;20295;-56
2022/08/11 11:21:07;;;;;;;0.50;0.40;;;;;;;34.02;28.65;95077.81;5073088;28;20431;-56
2022/08/11 11:23:46;;;;;;;0.40;0.40;;;;;;;33.94;29.38;95076.41;5071806;28;20947;-56
2022/08/11 11:26:38;;;;;;;0.50;0.50;;;;;;;33.06;29.50;95090.66;5072845;28;20573;-56
2022/08/11 11:29:46;;;;;;;0.40;0.40;;;;;;;33.69;30.07;95076.94;5072698;28;20836;-55
2022/08/11 11:32:24;;;;;;;0.40;0.40;;;;;;;33.98;30.67;95075.13;5030213;28;20952;-55
2022/08/11 11:35:13;;;;;;;0.60;0.50;;;;;;;33.62;30.91;95082.56;5068796;28;20467;-55
2022/08/11 11:37:45;;;;;;;0.40;0.40;;;;;;;33.45;31.66;95089.13;5072401;28;20468;-55
2022/08/11 11:40:32;;;;;;;0.40;0.30;;;;;;;32.37;32.34;95090.53;5072481;28;20426;-56
2022/08/11 11:43:01;;;;;;;0.50;0.50;;;;;;;32.25;32.52;95100.09;5072247;28;20471;-58
2022/08/11 11:45:30;;;;;;;0.60;0.50;;;;;;;31.51;32.88;95059.13;5072118;28;20432;-59
2022/08/11 11:48:01;;;;;;;0.53;0.53;;;;;;;31.06;34.51;95102.22;5072865;28;20593;-59
2022/08/11 11:50:31;;;;;;;0.87;0.87;;;;;;;31.08;36.48;95108.06;5072617;28;20453;-59
2022/08/11 11:53:05;;;;;;;0.40;0.33;;;;;;;30.95;37.48;95134.38;5072004;28;20436;-59
2022/08/11 11:55:35;;;;;;;0.50;0.40;;;;;;;29.60;41.86;95125.31;5071376;28;20504;-60
2022/08/11 12:03:40;;;;;;;0.70;0.50;;;;;;;27.59;61.73;95139.47;5071985;28;20912;-60
2022/08/11 12:06:12;;;;;;;0.90;0.90;;;;;;;27.41;73.64;95142.09;5072217;28;20828;-59
2022/08/11 12:08:43;;;;;;;0.70;0.57;;;;;;;27.46;74.56;95144.47;5071929;28;20421;-59
2022/08/11 12:14:02;;;;;;;0.73;0.73;;;;;;;25.97;86.29;95138.84;5071589;28;20457;-58
2022/08/11 12:16:39;;;;;;;0.60;0.53;;;;;;;26.05;91.11;95093.53;5071843;28;20455;-51
2022/08/11 12:19:11;;;;;;;0.80;0.77;;;;;;;27.05;86.95;95143.00;5071922;28;20526;-51
2022/08/11 12:27:19;;;;;;;0.77;0.53;;;;;;;27.04;89.97;95155.06;5071749;28;20472;-50
2022/08/11 12:27:23;;;;;;;0.70;0.70;;;;;;;26.52;100.00;95183.31;5071652;28;20468;-50
2022/08/11 12:29:56;;;;;;;0.53;0.50;;;;;;;26.51;100.00;95154.59;5071482;28;20429;-50
2022/08/11 12:32:27;;;;;;;2.83;0.70;;;;;;;26.73;100.00;95183.53;5071559;28;20414;-50
2022/08/11 12:34:57;;;;;;;0.50;0.40;;;;;;;26.59;100.00;95190.78;5071581;28;20429;-50
2022/08/11 12:37:30;;;;;;;0.40;0.30;;;;;;;27.20;90.60;95192.88;5072003;28;20429;-50
2022/08/11 12:46:08;;;;;;;1.03;0.30;;;;;;;28.06;88.28;95206.63;5071363;28;20445;-50
2022/08/11 12:54:50;;;;;;;0.40;0.30;;;;;;;28.27;75.91;95217.63;5071513;28;20445;-50
2022/08/11 13:05:57;;;;;;;0.40;0.30;;;;;;;28.26;71.29;95230.47;5071357;28;20422;-50
2022/08/11 13:08:28;;;;;;;0.40;0.30;;;;;;;28.05;77.63;95235.84;5071607;28;20461;-50
2022/08/11 13:13:51;;;;;;;0.60;0.60;;;;;;;27.87;78.16;95237.66;5071044;28;20487;-50
2022/08/11 13:16:28;;;;;;;1.00;0.70;;;;;;;26.74;86.78;95228.56;5071173;28;20463;-50
2022/08/11 13:18:59;;;;;;;0.70;0.40;;;;;;;27.26;88.17;95256.66;5070863;28;20464;-50
2022/08/11 13:21:29;;;;;;;0.50;0.50;;;;;;;27.46;89.75;95256.06;5071045;28;20435;-50
2022/08/11 13:23:59;;;;;;;0.40;0.30;;;;;;;27.29;93.31;95255.91;5071073;28;20507;-50
2022/08/11 13:26:36;;;;;;;1.90;0.87;;;;;;;27.12;88.94;95259.28;5071184;28;20433;-50
2022/08/11 13:29:25;;;;;;;0.60;0.40;;;;;;;27.34;88.92;95258.28;5071495;28;20803;-50
2022/08/11 13:31:57;;;;;;;0.40;0.30;;;;;;;27.53;83.06;95255.34;5071215;28;20450;-50
2022/08/11 13:34:27;;;;;;;0.43;0.40;;;;;;;26.83;85.83;95253.56;5070852;28;20515;-50
2022/08/11 13:36:58;;;;;;;0.40;0.30;;;;;;;27.17;84.71;95257.00;5071019;28;20513;-50
2022/08/11 13:39:30;;;;;;;0.57;0.57;;;;;;;26.88;85.15;95249.72;5070907;28;20917;-50
2022/08/11 13:42:00;;;;;;;0.70;0.60;;;;;;;27.20;89.60;95247.31;5071007;28;20429;-50
2022/08/11 13:44:34;;;;;;;0.50;0.33;;;;;;;27.27;100.00;95241.91;5070515;28;20880;-50
2022/08/11 13:47:06;;;;;;;0.50;0.30;;;;;;;27.59;99.72;95249.16;5070727;28;20424;-50
2022/08/11 13:49:37;;;;;;;1.07;0.53;;;;;;;27.04;97.56;95247.56;5071095;28;20429;-50
2022/08/11 13:52:12;;;;;;;3.93;0.80;;;;;;;26.97;100.00;95258.34;5070090;28;20979;-50
2022/08/11 13:54:42;;;;;;;0.70;0.50;;;;;;;27.46;100.00;95249.84;5070807;28;20929;-50
2022/08/11 13:57:14;;;;;;;0.50;0.30;;;;;;;27.13;100.00;95264.34;5070438;28;20421;-50
2022/08/11 14:00:10;;;;;;;0.40;0.33;;;;;;;27.00;100.00;95263.03;5070627;28;20451;-50
2022/08/11 14:03:02;;;;;;;0.70;0.50;;;;;;;26.44;100.00;95265.94;5069799;28;20474;-55
2022/08/11 14:05:38;;;;;;;0.53;0.47;;;;;;;26.53;100.00;95263.72;5070453;28;20429;-55
2022/08/11 14:08:21;;;;;;;0.60;0.60;;;;;;;26.45;100.00;95270.22;5070363;28;20498;-51
2022/08/11 14:14:19;;;;;;;0.90;0.53;;;;;;;26.34;98.22;95255.72;5074106;28;20437;-49
2022/08/11 14:16:51;;;;;;;0.50;0.40;;;;;;;26.33;100.00;95254.97;5073062;28;20948;-50
2022/08/11 14:19:23;;;;;;;0.60;0.40;;;;;;;26.35;95.16;95252.66;5073859;28;20472;-49
2022/08/11 14:22:07;;;;;;;0.43;0.37;;;;;;;26.24;96.09;95249.00;5074013;28;20516;-48
2022/08/11 14:24:39;;;;;;;0.40;0.40;;;;;;;26.28;98.44;95252.56;5073923;28;20518;-49
2022/08/11 14:27:10;;;;;;;0.50;0.50;;;;;;;26.21;98.63;95240.84;5073696;28;20512;-48
2022/08/11 14:29:59;;;;;;;0.43;0.40;;;;;;;26.55;98.18;95239.66;5073777;28;20442;-50
2022/08/11 14:32:29;;;;;;;0.53;0.40;;;;;;;26.86;93.29;95233.78;5074239;28;20504;-49
2022/08/11 14:35:01;;;;;;;0.60;0.40;;;;;;;26.96;93.85;95240.47;5073776;28;20445;-51
2022/08/11 14:37:30;;;;;;;0.67;0.67;;;;;;;26.74;93.62;95231.28;5074051;28;20964;-50
2022/08/11 14:47:03;;;;;;;1.00;0.40;;;;;;;26.37;98.44;95163.38;5074475;28;20494;-50
2022/08/11 14:48:32;;;;;;;0.50;0.50;;;;;;;27.18;91.83;95212.28;5034663;28;20497;-50
2022/08/11 14:51:01;;;;;;;0.40;0.30;;;;;;;27.07;93.90;95212.19;5071941;28;20453;-51
2022/08/11 14:53:30;;;;;;;0.40;0.30;;;;;;;26.52;97.99;95221.38;5072023;28;20486;-52
2022/08/11 14:58:46;;;;;;;0.70;0.50;;;;;;;25.61;100.00;95219.06;5071063;28;20889;-50
2022/08/11 15:03:59;;;;;;;0.37;0.20;;;;;;;26.13;91.94;95215.53;5049002;28;20484;-51
2022/08/11 15:06:48;;;;;;;0.40;0.30;;;;;;;26.21;88.85;95224.53;5073090;28;20440;-51
2022/08/11 15:09:17;;;;;;;0.40;0.37;;;;;;;25.69;92.89;95219.97;5073612;28;20449;-51
2022/08/11 15:17:47;;;;;;;0.70;0.40;;;;;;;24.57;97.78;95208.81;5072702;28;20475;-51
2022/08/11 15:25:57;;;;;;;0.40;0.40;;;;;;;24.17;89.36;95075.78;5073174;28;20421;-51
2022/08/11 15:45:53;;;;;;;0.40;0.30;;;;;;;25.45;92.54;95226.59;5072060;28;20433;-51
2022/08/11 15:48:30;;;;;;;0.40;0.30;;;;;;;25.17;93.31;95183.50;5072044;28;20499;-51
2022/08/11 15:51:08;;;;;;;0.60;0.60;;;;;;;25.50;92.80;95209.22;5072346;28;20421;-51
2022/08/11 15:53:44;;;;;;;0.50;0.30;;;;;;;25.89;90.20;95245.81;5072714;28;20517;-51
2022/08/11 15:56:26;;;;;;;0.50;0.30;;;;;;;26.13;88.53;95239.97;5073157;28;20498;-51
2022/08/11 16:05:10;;;;;;;0.40;0.30;;;;;;;25.82;93.79;95246.53;5072464;28;20468;-50
2022/08/11 16:07:47;;;;;;;0.50;0.30;;;;;;;24.99;97.31;95197.97;5072207;28;20817;-50
2022/08/11 16:10:21;;;;;;;0.50;0.30;;;;;;;25.15;98.41;95245.50;5072311;28;20929;-50
2022/08/11 16:18:45;;;;;;;0.40;0.30;;;;;;;25.64;99.06;95244.72;5071616;28;20551;-50
2022/08/11 16:21:23;;;;;;;0.50;0.30;;;;;;;25.54;100.00;95245.34;5072188;28;20772;-50
2022/08/11 16:24:05;;;;;;;0.60;0.40;;;;;;;25.65;99.74;95241.63;5071720;28;20572;-50
2022/08/11 16:26:39;;;;;;;0.50;0.30;;;;;;;25.46;97.39;95221.94;5071766;28;20915;-49
2022/08/11 16:29:31;;;;;;;0.70;0.43;;;;;;;24.95;100.00;95188.97;5071785;28;20447;-51
2022/08/11 16:32:17;;;;;;;0.50;0.37;;;;;;;25.55;95.72;95228.66;5071658;28;20521;-51
2022/08/11 16:40:23;;;;;;;0.40;0.30;;;;;;;25.32;100.00;95241.50;5071460;28;20472;-51
2022/08/11 16:48:31;;;;;;;0.40;0.30;;;;;;;25.45;91.74;95196.75;5071281;28;20426;-51
2022/08/11 16:51:06;;;;;;;0.53;0.40;;;;;;;25.96;90.47;95237.75;5071024;28;20413;-51
2022/08/11 16:53:37;;;;;;;0.40;0.30;;;;;;;26.00;89.36;95240.53;5071259;28;20467;-51
2022/08/11 16:56:30;;;;;;;0.57;0.30;;;;;;;25.77;91.39;95235.97;5071119;28;20531;-51
2022/08/11 16:59:13;;;;;;;0.60;0.30;;;;;;;26.06;87.99;95242.56;5071156;28;20460;-51
2022/08/11 17:01:49;;;;;;;0.40;0.30;;;;;;;26.04;87.52;95244.84;5071227;28;20436;-51
2022/08/11 17:13:28;;;;;;;0.40;0.30;;;;;;;25.41;100.00;95268.38;5071752;28;20429;-51